createdAt,value
2022-12-23T00:01:57.294Z,8.09
2022-12-23T00:04:23.662Z,8.07
2022-12-23T00:06:49.960Z,8.06
2022-12-23T00:09:16.317Z,8.06
2022-12-23T00:11:42.729Z,8.03
2022-12-23T00:14:09.837Z,8.04
2022-12-23T00:16:35.448Z,8.03
2022-12-23T00:19:01.680Z,8.03
2022-12-23T00:21:28.057Z,8.02
2022-12-23T00:23:54.368Z,8.01
2022-12-23T00:26:20.719Z,8.00
2022-12-23T00:28:47.190Z,7.99
2022-12-23T00:31:13.673Z,7.98
2022-12-23T00:33:39.917Z,7.99
2022-12-23T00:36:06.360Z,7.97
2022-12-23T00:38:32.643Z,7.98
2022-12-23T00:40:58.996Z,7.96
2022-12-23T00:43:25.363Z,7.94
2022-12-23T00:45:51.736Z,7.95
2022-12-23T00:48:18.046Z,7.94
2022-12-23T00:50:44.386Z,7.93
2022-12-23T00:53:10.742Z,7.92
2022-12-23T00:55:37.080Z,7.92
2022-12-23T00:58:03.508Z,7.91
2022-12-23T01:00:29.858Z,7.91
2022-12-23T01:02:56.291Z,7.90
2022-12-23T01:05:22.547Z,7.90
2022-12-23T01:07:48.859Z,7.90
2022-12-23T01:10:15.202Z,7.90
2022-12-23T01:12:41.557Z,7.89
2022-12-23T01:15:07.938Z,7.88
2022-12-23T01:17:34.262Z,7.88
2022-12-23T01:20:00.639Z,7.86
2022-12-23T01:22:26.956Z,7.86
2022-12-23T01:24:53.304Z,7.85
2022-12-23T01:27:19.651Z,7.87
2022-12-23T01:29:46.009Z,7.85
2022-12-23T01:32:12.412Z,7.85
2022-12-23T01:34:38.692Z,7.85
2022-12-23T01:37:05.094Z,7.87
2022-12-23T01:39:31.444Z,7.89
2022-12-23T01:41:57.824Z,7.91
2022-12-23T01:44:24.123Z,7.92
2022-12-23T01:46:50.505Z,7.93
2022-12-23T01:49:16.817Z,7.95
2022-12-23T01:51:43.165Z,7.96
2022-12-23T01:54:09.528Z,7.98
2022-12-23T01:56:35.866Z,8.00
2022-12-23T01:59:02.194Z,8.00
2022-12-23T02:01:28.686Z,8.01
2022-12-23T02:03:54.957Z,8.01
2022-12-23T02:06:21.343Z,8.02
2022-12-23T02:08:47.682Z,8.02
2022-12-23T02:11:14.026Z,8.03
2022-12-23T02:13:40.341Z,8.03
2022-12-23T02:16:06.682Z,8.04
2022-12-23T02:18:32.998Z,8.05
2022-12-23T02:20:59.389Z,8.07
2022-12-23T02:23:25.759Z,8.08
2022-12-23T02:25:52.088Z,8.09
2022-12-23T02:28:18.411Z,8.10
2022-12-23T02:30:44.849Z,8.09
2022-12-23T02:33:11.182Z,8.11
2022-12-23T02:35:37.567Z,8.11
2022-12-23T02:38:03.889Z,8.12
2022-12-23T02:40:30.224Z,8.12
2022-12-23T02:42:56.550Z,8.13
2022-12-23T02:45:22.918Z,8.12
2022-12-23T02:47:49.280Z,8.13
2022-12-23T02:50:15.620Z,8.12
2022-12-23T02:52:42.025Z,8.13
2022-12-23T02:55:08.428Z,8.12
2022-12-23T02:57:34.764Z,8.12
2022-12-23T03:00:01.135Z,8.11
2022-12-23T03:02:27.645Z,8.10
2022-12-23T03:04:53.866Z,8.10
2022-12-23T03:07:20.220Z,8.10
2022-12-23T03:09:46.554Z,8.11
2022-12-23T03:12:12.925Z,8.09
2022-12-23T03:14:39.252Z,8.08
2022-12-23T03:17:05.613Z,8.08
2022-12-23T03:19:32.002Z,8.07
2022-12-23T03:21:58.345Z,8.08
2022-12-23T03:24:24.688Z,8.08
2022-12-23T03:26:51.007Z,8.07
2022-12-23T03:29:17.337Z,8.08
2022-12-23T03:31:43.741Z,8.08
2022-12-23T03:34:10.028Z,8.08
2022-12-23T03:36:36.388Z,8.08
2022-12-23T03:39:02.729Z,8.08
2022-12-23T03:41:29.089Z,8.09
2022-12-23T03:43:55.411Z,8.09
2022-12-23T03:46:21.872Z,8.09
2022-12-23T03:48:48.194Z,8.09
2022-12-23T03:51:14.551Z,8.10
2022-12-23T03:53:40.892Z,8.11
2022-12-23T03:56:07.240Z,8.11
2022-12-23T03:58:33.626Z,8.10
2022-12-23T04:00:59.970Z,8.10
2022-12-23T04:03:26.335Z,8.10
2022-12-23T04:05:52.676Z,8.08
2022-12-23T04:08:19.053Z,8.12
2022-12-23T04:10:45.419Z,8.10
2022-12-23T04:13:11.807Z,8.11
2022-12-23T04:15:38.175Z,8.11
2022-12-23T04:18:04.526Z,8.11
2022-12-23T04:20:30.835Z,8.11
2022-12-23T04:22:57.215Z,8.11
2022-12-23T04:25:23.563Z,8.11
2022-12-23T04:27:49.938Z,8.11
2022-12-23T04:30:16.266Z,8.10
2022-12-23T04:32:42.688Z,8.11
2022-12-23T04:35:09.008Z,8.10
2022-12-23T04:37:35.343Z,8.08
2022-12-23T04:40:01.779Z,8.07
2022-12-23T04:42:28.054Z,8.06
2022-12-23T04:44:54.382Z,8.05
2022-12-23T04:47:20.732Z,8.01
2022-12-23T04:49:47.133Z,8.00
2022-12-23T04:52:13.472Z,7.94
2022-12-23T04:54:45.788Z,7.98
2022-12-23T04:57:06.207Z,7.96
2022-12-23T04:59:32.554Z,7.96
2022-12-23T05:01:59.006Z,7.95
2022-12-23T05:04:25.299Z,7.94
2022-12-23T05:06:51.607Z,7.95
2022-12-23T05:09:17.969Z,7.96
2022-12-23T05:11:44.336Z,7.97
2022-12-23T05:14:10.693Z,7.97
2022-12-23T05:16:37.175Z,7.97
2022-12-23T05:19:03.421Z,7.98
2022-12-23T05:21:29.729Z,7.98
2022-12-23T05:23:56.098Z,7.99
2022-12-23T05:26:22.508Z,8.00
2022-12-23T05:28:48.837Z,8.00
2022-12-23T05:31:15.264Z,8.00
2022-12-23T05:33:41.602Z,8.01
2022-12-23T05:36:07.940Z,8.00
2022-12-23T05:38:34.249Z,8.00
2022-12-23T05:41:00.654Z,8.01
2022-12-23T05:43:26.931Z,8.02
2022-12-23T05:45:53.405Z,8.02
2022-12-23T05:48:19.624Z,8.04
2022-12-23T05:50:46.027Z,8.04
2022-12-23T05:53:12.376Z,8.05
2022-12-23T05:55:38.736Z,8.06
2022-12-23T05:58:05.056Z,8.07
2022-12-23T06:00:31.446Z,8.07
2022-12-23T06:02:59.524Z,8.10
2022-12-23T06:05:24.349Z,8.10
2022-12-23T06:07:50.705Z,8.11
2022-12-23T06:10:17.088Z,8.13
2022-12-23T06:12:43.405Z,8.13
2022-12-23T06:15:09.832Z,8.15
2022-12-23T06:17:36.169Z,8.16
2022-12-23T06:20:02.541Z,8.17
2022-12-23T06:22:28.903Z,8.18
2022-12-23T06:24:55.264Z,8.19
2022-12-23T06:27:21.596Z,8.20
2022-12-23T06:29:47.977Z,8.20
2022-12-23T06:32:14.472Z,8.20
2022-12-23T06:34:40.710Z,8.22
2022-12-23T06:37:07.067Z,8.22
2022-12-23T06:39:33.434Z,8.22
2022-12-23T06:41:59.797Z,8.22
2022-12-23T06:44:26.163Z,8.21
2022-12-23T06:46:52.520Z,8.23
2022-12-23T06:49:18.868Z,8.24
2022-12-23T06:51:45.165Z,8.24
2022-12-23T06:54:11.548Z,8.24
2022-12-23T06:56:37.865Z,8.26
2022-12-23T06:59:04.243Z,8.28
2022-12-23T07:01:30.658Z,8.30
2022-12-23T07:03:56.945Z,8.31
2022-12-23T07:06:23.262Z,8.32
2022-12-23T07:08:49.630Z,8.33
2022-12-23T07:11:15.943Z,8.35
2022-12-23T07:13:42.335Z,8.36
2022-12-23T07:16:08.737Z,8.38
2022-12-23T07:18:35.026Z,8.40
2022-12-23T07:21:01.352Z,8.42
2022-12-23T07:23:27.734Z,8.45
2022-12-23T07:25:54.080Z,8.49
2022-12-23T07:28:20.421Z,8.53
2022-12-23T07:30:46.787Z,8.59
2022-12-23T07:33:13.489Z,8.64
2022-12-23T07:35:39.821Z,8.70
2022-12-23T07:38:06.235Z,8.76
2022-12-23T07:40:32.655Z,8.83
2022-12-23T07:42:59.063Z,8.90
2022-12-23T07:45:25.398Z,8.95
2022-12-23T07:47:51.731Z,9.01
2022-12-23T07:50:18.073Z,9.08
2022-12-23T07:52:44.480Z,9.17
2022-12-23T07:55:10.817Z,9.28
2022-12-23T07:57:37.208Z,9.57
2022-12-23T08:00:03.552Z,10.07
2022-12-23T08:02:30.119Z,10.72
2022-12-23T08:04:56.299Z,11.38
2022-12-23T08:07:22.606Z,12.04
2022-12-23T08:09:48.925Z,12.65
2022-12-23T08:12:15.414Z,13.24
2022-12-23T08:14:41.714Z,13.79
2022-12-23T08:17:08.153Z,14.30
2022-12-23T08:19:34.470Z,14.80
2022-12-23T08:22:00.822Z,15.27
2022-12-23T08:24:27.267Z,15.69
2022-12-23T08:26:53.621Z,16.10
2022-12-23T08:29:19.956Z,16.48
2022-12-23T08:31:46.306Z,16.83
2022-12-23T08:34:12.633Z,17.19
2022-12-23T08:36:38.990Z,17.53
2022-12-23T08:39:05.360Z,17.85
2022-12-23T08:41:31.708Z,18.17
2022-12-23T08:43:58.074Z,18.46
2022-12-23T08:46:24.550Z,18.75
2022-12-23T08:48:50.763Z,19.04
2022-12-23T08:51:17.178Z,19.32
2022-12-23T08:53:43.500Z,19.61
2022-12-23T08:56:09.904Z,19.91
2022-12-23T08:58:36.230Z,20.19
2022-12-23T09:01:02.654Z,20.48
2022-12-23T09:03:29.052Z,20.67
2022-12-23T09:05:55.348Z,19.83
2022-12-23T09:08:21.670Z,18.71
2022-12-23T09:10:48.068Z,17.97
2022-12-23T09:13:22.285Z,17.67
2022-12-23T09:15:41.121Z,17.32
2022-12-23T09:18:07.451Z,17.23
2022-12-23T09:20:33.792Z,17.36
2022-12-23T09:23:00.127Z,17.35
2022-12-23T09:25:26.439Z,17.38
2022-12-23T09:27:52.802Z,17.58
2022-12-23T09:30:19.118Z,17.81
2022-12-23T09:32:45.488Z,17.93
2022-12-23T09:35:11.824Z,17.82
2022-12-23T09:37:38.188Z,17.57
2022-12-23T09:40:04.580Z,17.32
2022-12-23T09:42:30.892Z,17.01
2022-12-23T09:44:57.257Z,16.72
2022-12-23T09:47:23.606Z,16.48
2022-12-23T09:49:50.033Z,16.21
2022-12-23T09:52:16.369Z,16.10
2022-12-23T09:54:42.735Z,16.11
2022-12-23T09:57:09.121Z,16.11
2022-12-23T09:59:35.468Z,16.24
2022-12-23T10:02:01.904Z,16.45
2022-12-23T10:04:28.208Z,16.63
2022-12-23T10:06:57.761Z,16.71
2022-12-23T10:09:20.862Z,16.52
2022-12-23T10:11:47.231Z,16.20
2022-12-23T10:14:13.604Z,15.95
2022-12-23T10:16:40.057Z,16.03
2022-12-23T10:19:06.353Z,16.09
2022-12-23T10:21:32.665Z,15.90
2022-12-23T10:23:59.034Z,15.67
2022-12-23T10:26:25.424Z,15.35
2022-12-23T10:28:51.764Z,15.14
2022-12-23T10:31:39.385Z,14.97
2022-12-23T10:33:44.447Z,14.79
2022-12-23T10:36:10.845Z,14.69
2022-12-23T10:38:37.179Z,14.58
2022-12-23T10:41:07.129Z,14.48
2022-12-23T10:43:29.836Z,14.36
2022-12-23T10:45:56.159Z,14.29
2022-12-23T10:48:22.547Z,14.35
2022-12-23T10:50:48.921Z,14.45
2022-12-23T10:53:15.254Z,14.62
2022-12-23T10:55:41.581Z,14.80
2022-12-23T10:58:07.999Z,14.90
2022-12-23T11:00:34.462Z,14.91
2022-12-23T11:03:00.900Z,14.93
2022-12-23T11:05:27.158Z,14.85
2022-12-23T11:07:53.511Z,14.69
2022-12-23T11:10:19.855Z,14.75
2022-12-23T11:12:46.244Z,15.06
2022-12-23T11:15:12.575Z,15.29
2022-12-23T11:17:38.980Z,15.42
2022-12-23T11:20:05.348Z,15.57
2022-12-23T11:22:31.747Z,15.81
2022-12-23T11:24:58.058Z,16.10
2022-12-23T11:27:24.426Z,16.29
2022-12-23T11:29:50.747Z,16.36
2022-12-23T11:32:17.140Z,16.35
2022-12-23T11:34:43.482Z,16.28
2022-12-23T11:37:09.832Z,16.21
2022-12-23T11:39:36.189Z,16.14
2022-12-23T11:42:02.563Z,16.08
2022-12-23T11:44:28.882Z,16.01
2022-12-23T11:46:55.230Z,15.92
2022-12-23T11:49:21.591Z,15.89
2022-12-23T11:51:47.912Z,15.84
2022-12-23T11:54:14.248Z,15.80
2022-12-23T11:56:40.610Z,15.76
2022-12-23T11:59:06.935Z,15.73
2022-12-23T12:01:33.257Z,15.69
2022-12-23T12:03:59.708Z,15.66
2022-12-23T12:06:25.966Z,15.61
2022-12-23T12:08:52.346Z,15.57
2022-12-23T12:11:18.636Z,15.52
2022-12-23T12:13:44.975Z,15.49
2022-12-23T12:16:11.371Z,15.47
2022-12-23T12:18:37.730Z,15.43
2022-12-23T12:21:04.051Z,15.46
2022-12-23T12:23:30.501Z,15.48
2022-12-23T12:25:56.847Z,15.48
2022-12-23T12:28:23.236Z,15.53
2022-12-23T12:30:49.752Z,15.56
2022-12-23T12:33:16.058Z,15.60
2022-12-23T12:35:42.462Z,15.66
2022-12-23T12:38:08.828Z,15.71
2022-12-23T12:40:35.192Z,15.79
2022-12-23T12:43:01.624Z,15.90
2022-12-23T12:45:28.093Z,15.94
2022-12-23T12:47:57.037Z,15.99
2022-12-23T12:50:20.726Z,15.99
2022-12-23T12:52:47.098Z,15.98
2022-12-23T12:55:13.436Z,15.95
2022-12-23T12:57:39.784Z,15.93
2022-12-23T13:00:07.061Z,15.91
2022-12-23T13:02:32.495Z,15.90
2022-12-23T13:04:58.789Z,15.89
2022-12-23T13:07:25.140Z,15.85
2022-12-23T13:09:51.464Z,15.83
2022-12-23T13:12:17.851Z,15.81
2022-12-23T13:14:44.255Z,15.82
2022-12-23T13:17:10.725Z,15.91
2022-12-23T13:19:36.973Z,16.08
2022-12-23T13:22:03.359Z,16.26
2022-12-23T13:24:29.679Z,16.51
2022-12-23T13:26:56.099Z,16.68
2022-12-23T13:29:22.462Z,16.83
2022-12-23T13:31:48.843Z,16.94
2022-12-23T13:34:15.196Z,17.03
2022-12-23T13:36:41.627Z,17.09
2022-12-23T13:39:07.946Z,17.14
2022-12-23T13:41:34.333Z,17.19
2022-12-23T13:44:00.640Z,17.23
2022-12-23T13:46:27.041Z,17.28
2022-12-23T13:48:53.744Z,17.31
2022-12-23T13:51:20.120Z,17.33
2022-12-23T13:53:46.494Z,17.35
2022-12-23T13:56:12.868Z,17.36
2022-12-23T13:58:39.193Z,17.34
2022-12-23T14:01:05.625Z,17.32
2022-12-23T14:03:31.904Z,17.32
2022-12-23T14:05:58.393Z,17.33
2022-12-23T14:08:24.715Z,17.22
2022-12-23T14:10:51.104Z,17.06
2022-12-23T14:13:17.414Z,16.90
2022-12-23T14:15:43.831Z,16.75
2022-12-23T14:18:10.119Z,16.59
2022-12-23T14:20:36.505Z,16.44
2022-12-23T14:23:02.824Z,16.39
2022-12-23T14:25:29.184Z,16.33
2022-12-23T14:27:55.524Z,16.21
2022-12-23T14:30:21.890Z,16.10
2022-12-23T14:32:48.262Z,15.97
2022-12-23T14:35:14.583Z,15.84
2022-12-23T14:37:40.902Z,15.73
2022-12-23T14:40:07.282Z,15.61
2022-12-23T14:42:33.599Z,15.50
2022-12-23T14:44:59.983Z,15.41
2022-12-23T14:47:26.332Z,15.32
2022-12-23T14:49:52.711Z,15.24
2022-12-23T14:52:19.033Z,15.15
2022-12-23T14:55:06.097Z,15.09
2022-12-23T14:57:11.719Z,15.02
2022-12-23T14:59:38.071Z,14.96
2022-12-23T15:02:04.498Z,14.88
2022-12-23T15:04:30.800Z,14.82
2022-12-23T15:06:57.155Z,14.77
2022-12-23T15:09:23.491Z,14.71
2022-12-23T15:11:49.812Z,14.66
2022-12-23T15:14:16.191Z,14.60
2022-12-23T15:16:42.659Z,14.54
2022-12-23T15:19:08.891Z,14.47
2022-12-23T15:21:35.244Z,14.43
2022-12-23T15:24:01.629Z,14.39
2022-12-23T15:26:27.979Z,14.33
2022-12-23T15:28:54.318Z,14.29
2022-12-23T15:31:20.752Z,14.24
2022-12-23T15:34:04.333Z,14.18
2022-12-23T15:36:13.467Z,14.14
2022-12-23T15:38:39.853Z,14.10
2022-12-23T15:41:06.206Z,14.05
2022-12-23T15:43:32.598Z,14.02
2022-12-23T15:45:58.950Z,13.99
2022-12-23T15:48:25.297Z,13.94
2022-12-23T15:50:51.651Z,13.90
2022-12-23T15:53:18.038Z,13.87
2022-12-23T15:55:44.343Z,13.83
2022-12-23T15:58:10.683Z,13.79
2022-12-23T16:00:37.056Z,13.74
2022-12-23T16:03:06.686Z,13.70
2022-12-23T16:05:29.746Z,13.67
2022-12-23T16:07:56.112Z,13.62
2022-12-23T16:10:22.447Z,13.58
2022-12-23T16:12:48.847Z,13.54
2022-12-23T16:15:15.162Z,13.49
2022-12-23T16:17:41.590Z,13.46
2022-12-23T16:20:07.960Z,13.41
2022-12-23T16:22:34.345Z,13.36
2022-12-23T16:25:00.654Z,13.31
2022-12-23T16:27:27.053Z,13.26
2022-12-23T16:29:53.409Z,13.20
2022-12-23T16:32:19.889Z,13.16
2022-12-23T16:34:46.176Z,13.11
2022-12-23T16:37:12.520Z,13.06
2022-12-23T16:39:38.841Z,13.02
2022-12-23T16:42:05.178Z,12.96
2022-12-23T16:44:31.586Z,12.91
2022-12-23T16:46:58.000Z,12.85
2022-12-23T16:49:28.128Z,12.80
2022-12-23T16:51:50.710Z,12.76
2022-12-23T16:54:17.082Z,12.71
2022-12-23T16:56:43.429Z,12.67
2022-12-23T16:59:09.751Z,12.62
2022-12-23T17:01:36.182Z,12.57
2022-12-23T17:04:02.500Z,12.52
2022-12-23T17:06:28.861Z,12.46
2022-12-23T17:08:55.214Z,12.43
2022-12-23T17:11:21.605Z,12.39
2022-12-23T17:13:47.913Z,12.33
2022-12-23T17:16:14.286Z,12.30
2022-12-23T17:18:40.628Z,12.25
2022-12-23T17:21:07.015Z,12.21
2022-12-23T17:23:33.340Z,12.17
2022-12-23T17:25:59.685Z,12.12
2022-12-23T17:28:26.002Z,12.08
2022-12-23T17:30:52.388Z,12.03
2022-12-23T17:33:18.742Z,11.98
2022-12-23T17:35:45.156Z,11.95
2022-12-23T17:38:11.470Z,11.91
2022-12-23T17:40:37.808Z,11.88
2022-12-23T17:43:04.168Z,11.82
2022-12-23T17:45:30.588Z,11.78
2022-12-23T17:47:56.880Z,11.73
2022-12-23T17:50:23.214Z,11.69
2022-12-23T17:52:49.573Z,11.65
2022-12-23T17:55:15.996Z,11.61
2022-12-23T17:57:42.349Z,11.58
2022-12-23T18:00:08.693Z,11.53
2022-12-23T18:02:35.062Z,11.49
2022-12-23T18:05:01.402Z,11.45
2022-12-23T18:07:27.715Z,11.42
2022-12-23T18:09:54.064Z,11.38
2022-12-23T18:12:24.960Z,11.33
2022-12-23T18:14:46.771Z,11.29
2022-12-23T18:17:13.216Z,11.25
2022-12-23T18:19:39.499Z,11.22
2022-12-23T18:22:05.789Z,11.18
2022-12-23T18:24:32.169Z,11.14
2022-12-23T18:26:58.529Z,11.11
2022-12-23T18:29:24.870Z,11.08
2022-12-23T18:31:52.313Z,11.05
2022-12-23T18:34:17.614Z,11.02
2022-12-23T18:36:43.947Z,11.00
2022-12-23T18:39:10.296Z,10.95
2022-12-23T18:41:36.622Z,10.92
2022-12-23T18:44:02.965Z,10.89
2022-12-23T18:46:29.430Z,10.87
2022-12-23T18:48:55.719Z,10.84
2022-12-23T18:51:22.057Z,10.80
2022-12-23T18:53:48.392Z,10.78
2022-12-23T18:56:14.730Z,10.75
2022-12-23T18:58:41.084Z,10.71
2022-12-23T19:01:07.491Z,10.68
2022-12-23T19:03:33.797Z,10.65
2022-12-23T19:06:00.123Z,10.63
2022-12-23T19:08:27.707Z,10.58
2022-12-23T19:10:52.826Z,10.57
2022-12-23T19:13:19.219Z,10.55
2022-12-23T19:15:45.595Z,10.52
2022-12-23T19:18:11.902Z,10.48
2022-12-23T19:20:38.266Z,10.45
2022-12-23T19:23:04.648Z,10.41
2022-12-23T19:25:30.975Z,10.38
2022-12-23T19:27:57.365Z,10.35
2022-12-23T19:30:23.711Z,10.32
2022-12-23T19:32:50.062Z,10.31
2022-12-23T19:35:16.369Z,10.28
2022-12-23T19:37:42.748Z,10.25
2022-12-23T19:40:09.060Z,10.23
2022-12-23T19:42:35.464Z,10.20
2022-12-23T19:45:01.822Z,10.18
2022-12-23T19:47:28.166Z,10.15
2022-12-23T19:49:54.529Z,10.12
2022-12-23T19:52:20.879Z,10.08
2022-12-23T19:54:47.244Z,10.05
2022-12-23T19:57:13.649Z,10.01
2022-12-23T19:59:39.938Z,9.97
2022-12-23T20:02:06.327Z,9.95
2022-12-23T20:04:32.621Z,9.92
2022-12-23T20:06:58.959Z,9.90
2022-12-23T20:09:25.290Z,9.87
2022-12-23T20:11:51.669Z,9.83
2022-12-23T20:14:17.978Z,9.81
2022-12-23T20:16:44.376Z,9.78
2022-12-23T20:19:10.729Z,9.76
2022-12-23T20:21:37.059Z,9.73
2022-12-23T20:24:03.437Z,9.71
2022-12-23T20:26:29.874Z,9.68
2022-12-23T20:28:56.133Z,9.66
2022-12-23T20:31:22.648Z,9.63
2022-12-23T20:33:48.881Z,9.62
2022-12-23T20:36:15.291Z,9.61
2022-12-23T20:38:41.615Z,9.58
2022-12-23T20:41:07.964Z,9.59
2022-12-23T20:43:34.321Z,9.55
2022-12-23T20:46:00.736Z,9.55
2022-12-23T20:48:33.529Z,9.55
2022-12-23T20:50:53.414Z,9.53
2022-12-23T20:53:19.772Z,9.51
2022-12-23T20:55:46.106Z,9.49
2022-12-23T20:58:12.429Z,9.47
2022-12-23T21:00:38.816Z,9.44
2022-12-23T21:03:10.214Z,9.42
2022-12-23T21:05:31.527Z,9.52
2022-12-23T21:07:57.837Z,9.65
2022-12-23T21:10:24.184Z,9.63
2022-12-23T21:12:50.582Z,9.57
2022-12-23T21:15:16.903Z,9.51
2022-12-23T21:17:43.265Z,9.47
2022-12-23T21:20:09.634Z,9.42
2022-12-23T21:22:36.038Z,9.38
2022-12-23T21:25:02.418Z,9.35
2022-12-23T21:27:28.751Z,9.32
2022-12-23T21:29:55.110Z,9.27
2022-12-23T21:32:21.430Z,9.24
2022-12-23T21:34:47.816Z,9.22
2022-12-23T21:37:14.183Z,9.20
2022-12-23T21:39:40.558Z,9.17
2022-12-23T21:42:06.863Z,9.16
2022-12-23T21:44:33.246Z,9.14
2022-12-23T21:46:59.689Z,9.12
2022-12-23T21:49:25.942Z,9.13
2022-12-23T21:51:52.286Z,9.15
2022-12-23T21:54:18.662Z,9.14
2022-12-23T21:56:44.958Z,9.14
2022-12-23T21:59:11.388Z,9.11
2022-12-23T22:01:37.702Z,9.09
2022-12-23T22:04:04.014Z,9.13
2022-12-23T22:06:30.325Z,9.16
2022-12-23T22:08:56.675Z,9.14
2022-12-23T22:11:22.999Z,9.11
2022-12-23T22:13:49.417Z,9.09
2022-12-23T22:16:15.777Z,9.05
2022-12-23T22:18:42.082Z,9.04
2022-12-23T22:21:08.441Z,9.02
2022-12-23T22:23:34.788Z,8.99
2022-12-23T22:26:01.217Z,8.96
2022-12-23T22:28:27.537Z,8.93
2022-12-23T22:30:53.856Z,8.91
2022-12-23T22:33:20.178Z,8.87
2022-12-23T22:35:46.540Z,8.87
2022-12-23T22:38:12.895Z,8.85
2022-12-23T22:40:39.276Z,8.83
2022-12-23T22:43:05.624Z,8.82
2022-12-23T22:45:32.053Z,8.78
2022-12-23T22:47:58.371Z,8.76
2022-12-23T22:50:24.755Z,8.75
2022-12-23T22:52:51.101Z,8.73
2022-12-23T22:55:17.445Z,8.68
2022-12-23T22:57:43.765Z,8.67
2022-12-23T23:00:12.614Z,8.65
2022-12-23T23:02:36.486Z,8.62
2022-12-23T23:05:07.716Z,8.60
2022-12-23T23:07:29.195Z,8.56
2022-12-23T23:09:55.525Z,8.53
2022-12-23T23:12:21.883Z,8.49
2022-12-23T23:14:48.257Z,8.48
2022-12-23T23:17:14.604Z,8.45
2022-12-23T23:19:40.946Z,8.43
2022-12-23T23:22:07.315Z,8.42
2022-12-23T23:24:33.658Z,8.41
2022-12-23T23:27:00.017Z,8.41
2022-12-23T23:29:26.433Z,8.38
2022-12-23T23:31:52.791Z,8.36
2022-12-23T23:34:19.048Z,8.33
2022-12-23T23:36:45.408Z,8.32
2022-12-23T23:39:11.812Z,8.31
2022-12-23T23:41:38.130Z,8.27
2022-12-23T23:44:04.464Z,8.26
2022-12-23T23:46:31.062Z,8.23
2022-12-23T23:48:57.303Z,8.22
2022-12-23T23:51:23.635Z,8.20
2022-12-23T23:53:50.033Z,8.16
2022-12-23T23:56:20.396Z,8.18
2022-12-23T23:58:42.760Z,8.15
